Time;durP1;ratioP1;P1;durP2;ratioP2;P2;SDS_P1;SDS_P2;PMS_P1;PMS_P2;Temp;Humidity;BMP_temperature;BMP_pressure;BME280_temperature;BME280_humidity;BME280_pressure;Samples;Min_cycle;Max_cycle;Signal;HPM_P1;HPM_P2
2023/09/30 00:00:17;;;;;;;12.18;3.80;;;17.50;99.90;;;;;;4977330;28;20560;-74
2023/09/30 00:02:43;;;;;;;14.07;3.80;;;;;;;;;;4977743;28;20038;-74
2023/09/30 00:05:10;;;;;;;11.02;2.78;;;17.60;99.90;;;;;;4977486;28;20042;-74
2023/09/30 00:07:36;;;;;;;8.55;2.83;;;17.40;99.90;;;;;;4977336;28;20093;-74
2023/09/30 00:10:03;;;;;;;18.33;3.95;;;17.60;99.90;;;;;;4977102;28;20138;-74
2023/09/30 00:12:29;;;;;;;11.85;4.82;;;;;;;;;;4977192;28;20058;-75
2023/09/30 00:14:55;;;;;;;13.10;3.75;;;17.50;99.90;;;;;;4977199;28;20050;-74
2023/09/30 00:17:21;;;;;;;14.57;3.42;;;17.10;99.90;;;;;;4977838;28;20242;-74
2023/09/30 00:19:46;;;;;;;11.35;3.60;;;17.60;99.90;;;;;;4976957;28;20038;-74
2023/09/30 00:22:12;;;;;;;10.98;3.47;;;17.50;99.90;;;;;;4977103;28;20516;-74
2023/09/30 00:24:38;;;;;;;17.50;3.85;;;17.50;99.90;;;;;;4976827;28;20034;-75
2023/09/30 00:27:04;;;;;;;8.85;3.22;;;;;;;;;;4977321;28;20042;-74
2023/09/30 00:29:30;;;;;;;11.43;5.13;;;17.40;99.90;;;;;;4977240;28;20552;-75
2023/09/30 00:31:55;;;;;;;17.10;3.58;;;17.30;99.90;;;;;;4977165;28;20046;-75
2023/09/30 00:34:21;;;;;;;13.20;3.92;;;17.60;99.90;;;;;;4975798;28;20050;-75
2023/09/30 00:36:47;;;;;;;18.33;4.68;;;17.50;99.90;;;;;;4976881;28;20050;-74
2023/09/30 00:39:13;;;;;;;8.82;3.35;;;17.20;99.90;;;;;;4976511;28;20046;-74
2023/09/30 00:41:39;;;;;;;10.35;3.47;;;17.20;99.90;;;;;;4977008;28;20193;-74
2023/09/30 00:44:05;;;;;;;9.80;3.35;;;17.20;99.90;;;;;;4976721;28;20069;-74
2023/09/30 00:46:32;;;;;;;11.40;3.20;;;17.20;99.90;;;;;;4976617;28;20049;-74
2023/09/30 00:49:00;;;;;;;13.27;3.30;;;17.40;99.90;;;;;;4976375;28;20565;-74
2023/09/30 00:51:26;;;;;;;13.45;4.22;;;17.50;99.90;;;;;;4976601;28;20050;-74
2023/09/30 00:53:53;;;;;;;15.35;4.10;;;;;;;;;;4960282;28;20514;-74
2023/09/30 00:56:23;;;;;;;14.27;3.60;;;17.60;99.90;;;;;;4976506;28;20077;-74
2023/09/30 00:58:51;;;;;;;13.35;3.72;;;17.30;99.90;;;;;;4976577;28;20405;-74
2023/09/30 01:01:18;;;;;;;11.10;3.97;;;17.50;99.90;;;;;;4976221;28;20052;-74
2023/09/30 01:03:45;;;;;;;18.98;4.40;;;17.40;99.90;;;;;;4993756;28;20031;-74
2023/09/30 01:06:11;;;;;;;13.82;3.92;;;;;;;;;;4976289;28;20065;-74
2023/09/30 01:08:37;;;;;;;8.45;3.42;;;17.80;99.90;;;;;;4976270;28;20042;-75
2023/09/30 01:11:03;;;;;;;11.75;4.95;;;17.70;99.90;;;;;;4975934;28;20446;-75
2023/09/30 01:13:35;;;;;;;12.05;3.70;;;17.80;99.90;;;;;;4976226;28;20042;-74
2023/09/30 01:16:12;;;;;;;15.98;3.85;;;17.90;99.90;;;;;;4976065;28;20100;-74
2023/09/30 01:18:42;;;;;;;16.08;3.83;;;17.70;99.90;;;;;;4976058;28;20403;-74
2023/09/30 01:21:08;;;;;;;12.80;3.83;;;;;;;;;;4976024;28;20522;-74
2023/09/30 01:23:38;;;;;;;13.70;3.50;;;17.70;99.90;;;;;;4975814;28;20127;-74
2023/09/30 01:26:09;;;;;;;14.13;4.20;;;17.50;99.90;;;;;;4975830;28;20464;-73
2023/09/30 01:28:34;;;;;;;11.68;3.50;;;17.80;99.90;;;;;;4976059;28;20074;-74
2023/09/30 01:31:00;;;;;;;14.73;3.58;;;;;;;;;;4975977;28;20473;-73
2023/09/30 01:33:27;;;;;;;16.92;3.80;;;17.70;99.90;;;;;;4975694;28;20121;-75
2023/09/30 01:35:53;;;;;;;12.38;4.40;;;17.60;99.90;;;;;;4975926;28;20591;-74
2023/09/30 01:38:19;;;;;;;16.27;3.75;;;;;;;;;;4975895;28;20054;-74
2023/09/30 01:40:46;;;;;;;7.68;3.00;;;18.00;99.90;;;;;;4975446;28;20042;-74
2023/09/30 01:43:13;;;;;;;10.23;3.20;;;17.60;99.90;;;;;;4975616;28;20043;-74
2023/09/30 01:45:39;;;;;;;7.35;2.70;;;;;;;;;;4975414;28;20129;-73
2023/09/30 01:48:05;;;;;;;10.52;3.53;;;;;;;;;;4959288;28;20038;-75
2023/09/30 01:50:31;;;;;;;6.97;2.60;;;17.90;99.90;;;;;;4975360;28;20066;-73
2023/09/30 01:52:57;;;;;;;8.82;3.00;;;18.00;99.90;;;;;;4975742;28;20462;-74
2023/09/30 01:55:23;;;;;;;11.38;3.15;;;17.90;99.90;;;;;;4975297;28;20129;-74
2023/09/30 01:57:48;;;;;;;11.23;3.50;;;18.00;99.90;;;;;;4975874;28;20042;-74
2023/09/30 02:00:14;;;;;;;10.60;3.38;;;17.90;99.90;;;;;;4975144;28;20524;-74
2023/09/30 02:02:41;;;;;;;11.20;3.08;;;;;;;;;;4975237;28;20045;-73
2023/09/30 02:05:10;;;;;;;11.38;3.22;;;17.90;99.90;;;;;;4975378;28;20498;-74
2023/09/30 02:07:36;;;;;;;11.52;3.28;;;;;;;;;;4975296;28;20131;-74
2023/09/30 02:10:03;;;;;;;7.97;2.45;;;;;;;;;;4974900;28;20532;-74
2023/09/30 02:12:29;;;;;;;9.90;2.67;;;;;;;;;;4975463;28;20042;-74
2023/09/30 02:14:55;;;;;;;9.27;3.33;;;;;;;;;;4975006;28;20046;-74
2023/09/30 02:17:21;;;;;;;9.20;2.35;;;;;;;;;;4958992;28;20093;-74
2023/09/30 02:19:47;;;;;;;12.02;2.75;;;;;;;;;;4974819;28;20058;-75
2023/09/30 02:22:13;;;;;;;11.27;2.90;;;18.00;99.90;;;;;;4975058;28;20046;-73
2023/09/30 02:24:40;;;;;;;10.05;3.15;;;18.20;99.90;;;;;;4974761;28;20034;-75
2023/09/30 02:27:05;;;;;;;7.60;2.95;;;18.00;99.90;;;;;;4974978;28;20498;-74
2023/09/30 02:29:31;;;;;;;12.05;3.30;;;;;;;;;;4974598;28;20038;-74
2023/09/30 02:31:57;;;;;;;8.25;2.65;;;;;;;;;;4974978;28;20042;-74
2023/09/30 02:34:23;;;;;;;9.95;2.97;;;;;;;;;;4958781;28;20042;-73
2023/09/30 02:36:50;;;;;;;11.13;2.60;;;;;;;;;;4974876;28;20046;-73
2023/09/30 02:39:19;;;;;;;10.13;3.92;;;;;;;;;;4974439;28;20046;-73
2023/09/30 02:41:45;;;;;;;9.10;2.83;;;18.00;99.90;;;;;;4975115;28;20453;-74
2023/09/30 02:44:11;;;;;;;8.75;2.92;;;;;;;;;;4975101;28;20173;-73
2023/09/30 02:46:37;;;;;;;8.02;2.53;;;18.00;99.90;;;;;;4958967;28;20046;-74
2023/09/30 02:49:03;;;;;;;8.52;3.10;;;;;;;;;;4974523;28;20050;-74
2023/09/30 02:51:30;;;;;;;10.57;3.30;;;17.80;99.90;;;;;;4974740;28;20046;-74
2023/09/30 02:53:56;;;;;;;8.27;3.35;;;18.00;99.90;;;;;;4974713;28;20125;-74
2023/09/30 02:56:24;;;;;;;12.55;3.78;;;18.10;99.90;;;;;;4974761;28;20230;-74
2023/09/30 02:58:51;;;;;;;13.13;3.22;;;18.10;99.90;;;;;;4977948;28;20046;-74
2023/09/30 03:01:17;;;;;;;7.75;3.17;;;17.90;99.90;;;;;;4978376;28;20042;-74
2023/09/30 03:03:44;;;;;;;8.55;2.72;;;17.70;99.90;;;;;;4978808;28;20038;-73
2023/09/30 03:06:10;;;;;;;10.98;2.90;;;17.50;99.90;;;;;;4978498;28;20518;-74
2023/09/30 03:08:36;;;;;;;14.38;4.30;;;17.90;99.90;;;;;;4978396;28;20054;-75
2023/09/30 03:11:03;;;;;;;7.55;3.00;;;17.60;99.90;;;;;;4978413;28;20085;-74
2023/09/30 03:13:30;;;;;;;16.35;4.50;;;;;;;;;;4978155;28;20092;-75
2023/09/30 03:15:56;;;;;;;11.57;3.10;;;17.60;99.90;;;;;;4978634;28;20120;-74
2023/09/30 03:18:26;;;;;;;10.43;2.70;;;17.80;99.90;;;;;;4978486;28;20050;-74
2023/09/30 03:20:56;;;;;;;6.50;2.58;;;17.50;99.90;;;;;;4978259;28;20090;-74
2023/09/30 03:23:25;;;;;;;7.53;2.70;;;17.50;99.90;;;;;;4978088;28;20039;-74
2023/09/30 03:25:50;;;;;;;12.13;2.88;;;17.60;99.90;;;;;;4978877;28;20472;-74
2023/09/30 03:28:16;;;;;;;11.80;3.50;;;17.60;99.90;;;;;;4978334;28;20129;-73
2023/09/30 03:30:42;;;;;;;10.98;3.03;;;;;;;;;;4977872;28;20069;-74
2023/09/30 03:33:08;;;;;;;8.98;3.38;;;;;;;;;;4978028;28;20506;-73
2023/09/30 03:35:36;;;;;;;13.05;4.13;;;;;;;;;;4977867;28;20034;-73
2023/09/30 03:38:02;;;;;;;12.85;3.17;;;17.60;99.90;;;;;;4978187;28;20692;-74
2023/09/30 03:40:32;;;;;;;9.55;3.50;;;17.30;99.90;;;;;;4977588;28;20043;-74
2023/09/30 03:42:58;;;;;;;11.02;2.78;;;17.50;99.90;;;;;;4977832;28;20038;-74
2023/09/30 03:45:24;;;;;;;7.68;2.75;;;17.30;99.90;;;;;;4977758;28;20031;-74
2023/09/30 03:47:51;;;;;;;13.02;3.20;;;17.40;99.90;;;;;;4977705;28;20169;-74
2023/09/30 03:50:17;;;;;;;12.70;3.53;;;17.40;99.90;;;;;;4977474;28;20050;-74
2023/09/30 03:52:44;;;;;;;8.50;3.25;;;17.30;99.90;;;;;;4977572;28;20418;-74
2023/09/30 03:55:20;;;;;;;13.35;3.35;;;17.30;99.90;;;;;;4977361;28;20046;-74
2023/09/30 03:57:48;;;;;;;9.82;3.63;;;17.00;99.90;;;;;;4977872;28;20042;-74
2023/09/30 04:00:16;;;;;;;10.90;3.45;;;17.50;99.90;;;;;;4977355;28;20485;-74
2023/09/30 04:02:42;;;;;;;12.20;3.90;;;;;;;;;;4978079;28;20053;-74
2023/09/30 04:05:11;;;;;;;11.45;3.35;;;17.60;99.90;;;;;;4977566;28;20074;-74
2023/09/30 04:07:37;;;;;;;7.97;3.30;;;17.20;99.90;;;;;;4977579;28;20049;-74
2023/09/30 04:10:04;;;;;;;12.82;3.60;;;17.60;99.90;;;;;;4977208;28;20470;-74
2023/09/30 04:12:32;;;;;;;9.02;3.90;;;;;;;;;;4977709;28;20498;-73
2023/09/30 04:14:58;;;;;;;7.97;3.63;;;;;;;;;;4977368;28;20536;-73
2023/09/30 04:17:26;;;;;;;14.82;4.88;;;;;;;;;;4977518;28;20440;-74
2023/09/30 04:19:52;;;;;;;18.13;4.93;;;;;;;;;;4976910;28;20046;-74
2023/09/30 04:22:21;;;;;;;17.60;4.40;;;;;;;;;;4977037;28;20053;-73
2023/09/30 04:24:49;;;;;;;14.27;4.22;;;17.10;99.90;;;;;;4976925;28;20042;-74
2023/09/30 04:27:15;;;;;;;12.68;3.85;;;17.60;99.90;;;;;;4976973;28;20078;-73
2023/09/30 04:29:41;;;;;;;15.48;5.28;;;17.20;99.90;;;;;;4976703;28;20533;-74
2023/09/30 04:32:07;;;;;;;11.38;4.75;;;;;;;;;;4976979;28;20038;-74
2023/09/30 04:34:33;;;;;;;13.95;5.10;;;;;;;;;;4976904;28;20057;-73
2023/09/30 04:36:59;;;;;;;12.63;4.85;;;;;;;;;;4976823;28;20042;-74
2023/09/30 04:39:25;;;;;;;16.75;4.82;;;;;;;;;;4976693;28;20046;-73
2023/09/30 04:41:51;;;;;;;10.52;4.65;;;;;;;;;;4976888;28;20121;-74
2023/09/30 04:44:17;;;;;;;14.77;5.68;;;;;;;;;;4977036;28;20092;-73
2023/09/30 04:46:46;;;;;;;17.15;4.57;;;;;;;;;;4976657;28;20074;-74
2023/09/30 04:49:15;;;;;;;16.77;5.95;;;17.10;99.90;;;;;;4976397;28;20054;-73
2023/09/30 04:51:41;;;;;;;18.20;5.80;;;17.30;99.90;;;;;;4976613;28;20054;-73
2023/09/30 04:54:10;;;;;;;12.88;5.43;;;17.60;99.90;;;;;;4976660;28;20046;-74
2023/09/30 04:56:36;;;;;;;16.13;5.85;;;17.10;99.90;;;;;;4976439;28;20116;-73
2023/09/30 04:59:02;;;;;;;14.40;5.20;;;17.30;99.90;;;;;;4976241;28;20129;-74
2023/09/30 05:01:28;;;;;;;12.88;5.43;;;17.40;99.90;;;;;;4976525;28;20369;-74
2023/09/30 05:03:54;;;;;;;16.92;5.97;;;;;;;;;;4976342;28;20042;-74
2023/09/30 05:06:21;;;;;;;10.27;5.40;;;17.20;99.90;;;;;;4976567;28;20061;-74
2023/09/30 05:08:47;;;;;;;11.60;6.18;;;17.40;99.90;;;;;;4976383;28;20042;-74
2023/09/30 05:11:13;;;;;;;13.45;6.20;;;17.30;99.90;;;;;;4976242;28;20077;-74
2023/09/30 05:13:39;;;;;;;14.05;5.80;;;16.90;99.90;;;;;;4976143;28;20078;-74
2023/09/30 05:16:07;;;;;;;21.85;6.97;;;;;;;;;;4976462;28;20084;-74
2023/09/30 05:18:33;;;;;;;38.30;8.32;;;;;;;;;;4975818;28;20533;-74
2023/09/30 05:21:00;;;;;;;17.65;6.40;;;;;;;;;;4975514;28;20068;-74
2023/09/30 05:23:25;;;;;;;13.60;5.82;;;16.90;99.90;;;;;;4975824;28;20053;-74
2023/09/30 05:25:52;;;;;;;16.88;6.47;;;17.10;99.90;;;;;;4976070;28;20034;-73
2023/09/30 05:28:20;;;;;;;11.10;5.45;;;17.30;99.90;;;;;;4975916;28;20044;-74
2023/09/30 05:30:46;;;;;;;14.27;6.38;;;;;;;;;;4975670;28;20109;-74
2023/09/30 05:33:16;;;;;;;17.25;6.55;;;;;;;;;;4975812;28;20041;-74
2023/09/30 05:35:42;;;;;;;16.02;6.57;;;16.50;99.90;;;;;;4975914;28;20558;-74
2023/09/30 05:38:08;;;;;;;17.75;6.57;;;16.80;99.90;;;;;;4975693;28;20129;-73
2023/09/30 05:40:34;;;;;;;11.75;6.35;;;;;;;;;;4975369;28;20049;-73
2023/09/30 05:43:00;;;;;;;16.30;6.85;;;;;;;;;;4975684;28;20073;-73
2023/09/30 05:45:27;;;;;;;12.63;6.43;;;16.90;99.90;;;;;;4975715;28;20414;-74
2023/09/30 05:47:57;;;;;;;18.58;8.10;;;16.80;99.90;;;;;;4975518;28;20030;-74
2023/09/30 05:50:26;;;;;;;14.00;6.95;;;17.30;99.90;;;;;;4975244;28;20042;-73
2023/09/30 05:52:54;;;;;;;21.02;9.20;;;17.10;99.90;;;;;;4975483;28;20037;-73
2023/09/30 05:55:21;;;;;;;10.65;7.15;;;;;;;;;;4975309;28;20085;-73
2023/09/30 05:57:49;;;;;;;15.70;7.10;;;16.60;99.90;;;;;;4975293;28;20050;-74
2023/09/30 06:00:20;;;;;;;18.38;8.65;;;;;;;;;;4974940;28;20049;-74
2023/09/30 06:02:51;;;;;;;16.45;7.45;;;16.80;99.90;;;;;;4975428;28;20042;-74
2023/09/30 06:05:18;;;;;;;14.77;7.68;;;17.20;99.90;;;;;;4975398;28;20038;-74
2023/09/30 06:07:48;;;;;;;19.48;7.88;;;17.20;99.90;;;;;;4975236;28;20038;-74
2023/09/30 06:10:18;;;;;;;17.83;6.80;;;16.80;99.90;;;;;;4974882;28;20529;-74
2023/09/30 06:12:46;;;;;;;15.40;6.63;;;16.90;99.90;;;;;;4975127;28;20042;-74
2023/09/30 06:15:13;;;;;;;21.67;8.30;;;17.10;99.90;;;;;;4975021;28;20180;-74
2023/09/30 06:17:38;;;;;;;19.52;7.03;;;16.70;99.90;;;;;;4974969;28;20038;-74
2023/09/30 06:20:09;;;;;;;17.60;7.00;;;16.70;99.90;;;;;;4974891;28;20045;-74
2023/09/30 06:22:35;;;;;;;16.38;6.95;;;16.80;99.90;;;;;;4975441;28;20069;-74
2023/09/30 06:25:02;;;;;;;13.45;7.75;;;16.90;99.90;;;;;;4974996;28;20069;-74
2023/09/30 06:27:28;;;;;;;15.90;8.85;;;;;;;;;;4975021;28;20382;-73
2023/09/30 06:29:54;;;;;;;18.05;7.75;;;17.20;99.90;;;;;;4974793;28;20038;-74
2023/09/30 06:32:20;;;;;;;21.15;8.23;;;;;;;;;;4974907;28;20038;-74
2023/09/30 06:34:46;;;;;;;16.75;7.97;;;;;;;;;;4975194;28;20042;-73
2023/09/30 06:37:12;;;;;;;19.60;8.80;;;;;;;;;;4974976;28;20502;-74
2023/09/30 06:39:38;;;;;;;22.48;8.57;;;;;;;;;;4975477;28;20075;-74
2023/09/30 06:42:04;;;;;;;20.88;9.50;;;17.70;99.90;;;;;;4977206;28;20513;-75
2023/09/30 06:44:31;;;;;;;16.75;7.97;;;17.40;99.90;;;;;;4977038;28;20037;-74
2023/09/30 06:46:57;;;;;;;22.50;8.10;;;;;;;;;;4977960;28;20049;-74
2023/09/30 06:49:23;;;;;;;15.05;6.85;;;17.40;99.90;;;;;;4975061;28;20085;-74
2023/09/30 06:51:49;;;;;;;18.92;8.93;;;17.90;99.90;;;;;;4974981;28;20082;-74
2023/09/30 06:54:15;;;;;;;22.65;9.35;;;;;;;;;;4974619;28;20046;-74
2023/09/30 06:56:41;;;;;;;14.73;7.78;;;;;;;;;;4974774;28;20466;-73
2023/09/30 06:59:07;;;;;;;16.38;8.30;;;;;;;;;;4974539;28;20417;-74
2023/09/30 07:01:33;;;;;;;21.33;9.25;;;;;;;;;;4974766;28;20038;-74
2023/09/30 07:03:59;;;;;;;13.27;7.88;;;17.60;99.90;;;;;;4974555;28;20034;-74
2023/09/30 07:06:26;;;;;;;20.42;9.23;;;;;;;;;;4974616;28;20391;-73
2023/09/30 07:08:52;;;;;;;19.50;8.95;;;18.00;99.90;;;;;;4974499;28;20050;-74
2023/09/30 07:11:28;;;;;;;16.10;9.10;;;18.00;99.90;;;;;;4974400;28;20045;-74
2023/09/30 07:13:53;;;;;;;16.08;10.10;;;17.80;99.90;;;;;;4974635;28;20042;-74
2023/09/30 07:16:19;;;;;;;19.33;8.88;;;17.90;99.90;;;;;;4958417;28;20038;-74
2023/09/30 07:18:44;;;;;;;14.48;8.75;;;18.20;99.90;;;;;;4974657;28;20046;-74
2023/09/30 07:21:10;;;;;;;20.77;9.68;;;;;;;;;;4974356;28;20395;-74
2023/09/30 07:23:37;;;;;;;20.27;9.38;;;;;;;;;;4974247;28;20042;-74
2023/09/30 07:26:02;;;;;;;20.92;9.65;;;18.40;99.90;;;;;;4974450;28;20047;-74
2023/09/30 07:28:29;;;;;;;19.00;9.15;;;;;;;;;;4974625;28;20410;-74
2023/09/30 07:30:55;;;;;;;15.48;8.50;;;18.10;99.90;;;;;;4974240;28;20093;-73
2023/09/30 07:33:21;;;;;;;19.42;9.25;;;;;;;;;;4974356;28;20069;-73
2023/09/30 07:35:47;;;;;;;21.02;9.48;;;18.40;99.90;;;;;;4974602;28;20077;-74
2023/09/30 07:38:13;;;;;;;17.35;9.65;;;;;;;;;;4974444;28;20069;-74
2023/09/30 07:40:39;;;;;;;21.42;10.50;;;;;;;;;;4974057;28;20092;-73
2023/09/30 07:43:05;;;;;;;19.00;9.40;;;18.80;99.90;;;;;;4975123;28;20046;-74
2023/09/30 07:45:31;;;;;;;17.35;8.88;;;18.80;99.90;;;;;;4977911;28;20552;-74
2023/09/30 07:47:58;;;;;;;16.33;8.15;;;19.10;99.90;;;;;;4978004;28;20399;-74
2023/09/30 07:50:24;;;;;;;19.00;8.25;;;18.60;99.90;;;;;;4977539;28;20077;-73
2023/09/30 07:52:50;;;;;;;15.55;8.55;;;;;;;;;;4977695;28;20074;-74
2023/09/30 07:55:15;;;;;;;19.98;8.85;;;18.90;99.90;;;;;;4977717;28;20046;-74
2023/09/30 07:57:43;;;;;;;15.68;8.32;;;19.10;99.90;;;;;;4977539;28;20089;-74
2023/09/30 08:00:14;;;;;;;17.80;8.40;;;19.10;99.90;;;;;;4977613;28;20043;-74
2023/09/30 08:02:40;;;;;;;13.98;7.65;;;19.30;99.90;;;;;;4977593;28;20039;-74
2023/09/30 08:05:07;;;;;;;16.42;7.95;;;19.70;99.90;;;;;;4977807;28;20042;-74
2023/09/30 08:07:33;;;;;;;15.15;7.97;;;19.80;99.90;;;;;;4977578;28;20073;-74
2023/09/30 08:09:59;;;;;;;14.45;7.63;;;19.80;99.90;;;;;;4977131;28;20513;-74
2023/09/30 08:12:25;;;;;;;18.67;8.40;;;19.50;99.90;;;;;;4977566;28;20046;-74
2023/09/30 08:14:51;;;;;;;18.70;7.63;;;19.70;99.90;;;;;;4977307;28;20039;-74
2023/09/30 08:17:17;;;;;;;14.23;8.45;;;19.60;99.90;;;;;;4977682;28;20050;-74
2023/09/30 08:19:44;;;;;;;17.60;7.90;;;19.80;99.90;;;;;;4977009;28;20046;-74
2023/09/30 08:22:09;;;;;;;15.88;7.00;;;20.00;99.90;;;;;;4977626;28;20042;-75
2023/09/30 08:24:35;;;;;;;13.90;7.13;;;20.00;99.90;;;;;;4977314;28;20117;-74
2023/09/30 08:27:01;;;;;;;15.95;7.95;;;20.20;99.90;;;;;;4977012;28;20038;-73
2023/09/30 08:29:27;;;;;;;15.60;7.05;;;20.10;99.90;;;;;;4976876;28;20544;-74
2023/09/30 08:31:52;;;;;;;18.75;7.53;;;20.10;99.90;;;;;;4976959;28;20038;-74
2023/09/30 08:34:21;;;;;;;16.38;6.90;;;;;;;;;;4976822;28;20052;-74
2023/09/30 08:36:46;;;;;;;14.40;6.72;;;20.30;99.90;;;;;;4976975;28;20082;-75
2023/09/30 08:39:12;;;;;;;19.92;7.82;;;20.40;99.90;;;;;;4976588;28;20502;-75
2023/09/30 08:41:38;;;;;;;20.92;6.90;;;20.90;99.90;;;;;;4977043;28;20038;-74
2023/09/30 08:44:05;;;;;;;15.63;6.38;;;;;;;;;;4976701;28;20490;-75
2023/09/30 08:46:32;;;;;;;13.25;6.45;;;20.60;99.90;;;;;;4976714;28;20543;-74
2023/09/30 08:49:00;;;;;;;14.63;6.95;;;20.80;99.90;;;;;;4976840;28;20050;-74
2023/09/30 08:51:26;;;;;;;12.45;5.80;;;;;;;;;;4976730;28;20061;-74
2023/09/30 08:53:53;;;;;;;17.75;6.47;;;20.80;99.90;;;;;;4976560;28;20042;-75
2023/09/30 08:56:22;;;;;;;18.98;6.95;;;21.20;99.90;;;;;;4975729;28;20042;-74
2023/09/30 08:58:48;;;;;;;16.52;7.03;;;21.20;99.90;;;;;;4960320;28;20053;-75
2023/09/30 09:01:15;;;;;;;14.43;6.00;;;21.50;99.90;;;;;;4976408;28;20034;-74
2023/09/30 09:03:40;;;;;;;14.77;5.93;;;21.20;99.90;;;;;;4976368;28;20506;-74
2023/09/30 09:06:06;;;;;;;13.02;5.00;;;21.40;99.90;;;;;;4976458;28;20088;-75
2023/09/30 09:08:32;;;;;;;13.50;5.45;;;21.50;99.90;;;;;;4976290;28;20042;-75
2023/09/30 09:10:59;;;;;;;14.85;4.72;;;21.40;99.90;;;;;;4976142;28;20046;-75
2023/09/30 09:13:25;;;;;;;11.68;4.50;;;21.40;99.90;;;;;;4976156;28;20042;-75
2023/09/30 09:16:09;;;;;;;10.23;3.55;;;21.20;99.90;;;;;;4976119;28;20035;-74
2023/09/30 09:18:35;;;;;;;;;;;21.60;99.90;;;;;;4976614;28;20070;-75
2023/09/30 09:21:16;;;;;;;11.38;3.83;;;21.40;99.90;;;;;;4959891;28;19917;-75
2023/09/30 09:23:45;;;;;;;11.80;3.47;;;21.50;99.90;;;;;;4976516;28;20130;-76
2023/09/30 09:26:24;;;;;;;13.07;3.95;;;21.80;99.90;;;;;;4976052;28;20100;-75
2023/09/30 09:28:49;;;;;;;11.38;3.20;;;21.50;99.90;;;;;;4976335;28;20524;-75
2023/09/30 09:31:23;;;;;;;19.90;3.83;;;21.90;99.90;;;;;;4975724;28;20106;-75
2023/09/30 09:33:50;;;;;;;11.88;3.17;;;21.80;99.90;;;;;;4975835;28;20040;-75
2023/09/30 09:36:17;;;;;;;8.45;3.63;;;21.80;99.90;;;;;;4975801;28;20085;-75
2023/09/30 09:38:53;;;;;;;8.65;3.38;;;22.20;99.90;;;;;;4975837;28;20042;-75
2023/09/30 09:41:22;;;;;;;10.93;3.35;;;22.10;99.90;;;;;;4975500;28;20416;-76
2023/09/30 09:43:50;;;;;;;10.45;3.17;;;22.20;99.90;;;;;;4975527;28;20502;-76
2023/09/30 09:46:17;;;;;;;7.32;2.85;;;22.60;99.90;;;;;;4975867;28;20398;-75
2023/09/30 09:48:48;;;;;;;7.07;2.53;;;22.40;99.90;;;;;;4975577;28;20031;-75
2023/09/30 09:51:14;;;;;;;8.73;2.90;;;22.40;99.90;;;;;;4975370;28;20159;-76
2023/09/30 09:53:41;;;;;;;12.57;2.67;;;22.40;99.90;;;;;;4975432;28;20125;-75
2023/09/30 09:56:12;;;;;;;13.27;2.47;;;22.40;99.90;;;;;;4975414;28;20048;-75
2023/09/30 09:58:40;;;;;;;8.20;2.30;;;22.60;99.90;;;;;;4975293;28;20073;-75
2023/09/30 10:01:07;;;;;;;9.80;2.65;;;22.60;99.90;;;;;;4975431;28;20398;-76
2023/09/30 10:03:32;;;;;;;7.70;2.10;;;22.60;99.90;;;;;;4975333;28;20121;-76
2023/09/30 10:06:00;;;;;;;11.50;2.85;;;22.60;99.90;;;;;;4974894;28;20494;-76
2023/09/30 10:08:40;;;;;;;12.63;2.13;;;22.40;99.90;;;;;;4975500;28;20089;-75
2023/09/30 10:11:06;;;;;;;11.63;2.65;;;22.40;99.90;;;;;;4975151;28;20047;-76
2023/09/30 10:13:52;;;;;;;5.80;2.10;;;22.70;99.90;;;;;;4975013;28;20046;-76
2023/09/30 10:16:36;;;;;;;11.55;2.00;;;22.80;99.90;;;;;;4975382;28;20445;-76
2023/09/30 10:19:09;;;;;;;9.23;1.95;;;23.00;99.90;;;;;;4974842;28;20124;-76
2023/09/30 10:21:34;;;;;;;7.10;1.65;;;22.90;99.90;;;;;;4975103;28;20085;-75
2023/09/30 10:24:23;;;;;;;8.38;2.42;;;23.00;99.90;;;;;;4975106;28;20038;-75
2023/09/30 10:27:31;;;;;;;9.63;2.30;;;23.60;99.90;;;;;;4965988;28;20054;-76
2023/09/30 10:29:58;;;;;;;5.43;1.45;;;23.00;99.90;;;;;;4974803;28;20046;-76
2023/09/30 10:32:44;;;;;;;8.45;2.30;;;23.00;99.90;;;;;;4975283;28;20097;-75
2023/09/30 10:35:09;;;;;;;8.68;2.22;;;22.90;99.90;;;;;;4974585;28;20042;-76
2023/09/30 10:37:35;;;;;;;8.40;2.83;;;22.80;99.90;;;;;;4974939;28;20061;-76
2023/09/30 10:40:03;;;;;;;11.23;2.20;;;23.00;99.90;;;;;;4974692;28;20043;-76
2023/09/30 10:42:49;;;;;;;8.15;1.80;;;22.70;99.90;;;;;;4974885;28;20058;-76
2023/09/30 10:45:40;;;;;;;6.43;1.73;;;22.50;99.90;;;;;;4974791;28;20042;-75
2023/09/30 10:48:25;;;;;;;15.70;2.70;;;22.40;99.90;;;;;;4974853;28;20046;-76
2023/09/30 10:51:00;;;;;;;9.10;2.05;;;22.80;99.90;;;;;;4974614;28;20089;-76
2023/09/30 10:53:30;;;;;;;14.50;2.88;;;21.80;99.90;;;;;;4974763;28;20042;-76
2023/09/30 10:56:00;;;;;;;8.23;1.85;;;21.60;99.90;;;;;;4974710;28;20536;-75
2023/09/30 10:58:45;;;;;;;9.35;2.60;;;21.70;99.90;;;;;;4974592;28;20038;-76
2023/09/30 11:01:13;;;;;;;13.20;2.00;;;21.80;99.90;;;;;;4974649;28;20042;-77
2023/09/30 11:03:40;;;;;;;7.00;2.08;;;22.00;99.90;;;;;;4974980;28;20097;-76
2023/09/30 11:06:06;;;;;;;7.88;1.83;;;21.90;99.90;;;;;;4974715;28;20073;-76
2023/09/30 11:08:33;;;;;;;10.23;2.15;;;22.40;99.90;;;;;;4974513;28;20073;-76
2023/09/30 11:11:00;;;;;;;12.48;2.25;;;22.80;99.90;;;;;;4974523;28;20046;-77
2023/09/30 11:13:32;;;;;;;7.85;1.73;;;22.80;99.90;;;;;;4974450;28;20088;-76
2023/09/30 11:16:04;;;;;;;6.43;2.15;;;22.60;99.90;;;;;;4974712;28;20038;-76
2023/09/30 11:18:31;;;;;;;8.68;1.75;;;22.80;99.90;;;;;;4976036;28;20458;-76
2023/09/30 11:21:12;;;;;;;6.57;1.40;;;23.10;99.90;;;;;;4978046;28;20065;-75
2023/09/30 11:23:38;;;;;;;9.00;2.40;;;22.90;99.90;;;;;;4978138;28;20045;-76
2023/09/30 11:26:07;;;;;;;7.45;1.48;;;23.20;99.90;;;;;;4978581;28;20398;-76
2023/09/30 11:28:39;;;;;;;9.93;1.90;;;23.20;99.90;;;;;;4978250;28;20034;-75
2023/09/30 11:31:10;;;;;;;8.57;1.95;;;23.80;99.90;;;;;;4977866;28;20516;-76
2023/09/30 11:33:57;;;;;;;10.75;3.92;;;23.40;99.90;;;;;;4977932;28;20089;-76
2023/09/30 11:36:23;;;;;;;5.93;1.67;;;23.50;99.90;;;;;;4978152;28;20049;-76
2023/09/30 11:38:52;;;;;;;5.35;1.67;;;23.60;99.90;;;;;;4978089;28;20740;-76
2023/09/30 11:41:18;;;;;;;8.55;2.47;;;23.70;99.90;;;;;;4977834;28;20057;-76
2023/09/30 11:44:07;;;;;;;13.77;1.88;;;23.50;99.90;;;;;;4977884;28;20034;-76
2023/09/30 11:46:55;;;;;;;7.13;1.83;;;23.40;99.90;;;;;;4978469;28;20188;-76
2023/09/30 11:49:28;;;;;;;8.65;1.60;;;23.10;99.90;;;;;;4994700;28;20394;-76
2023/09/30 11:51:55;;;;;;;9.23;2.13;;;23.30;99.90;;;;;;4978329;28;20038;-76
2023/09/30 11:54:22;;;;;;;9.95;1.80;;;23.50;99.90;;;;;;4996750;28;20046;-76
2023/09/30 11:56:48;;;;;;;9.00;2.30;;;23.50;99.90;;;;;;4980615;28;20118;-77
2023/09/30 11:59:13;;;;;;;5.05;1.90;;;23.50;99.90;;;;;;4981407;28;20096;-76
2023/09/30 12:01:39;;;;;;;6.72;1.60;;;23.90;99.90;;;;;;4980870;28;20034;-76
2023/09/30 12:04:06;;;;;;;6.88;1.85;;;23.70;99.90;;;;;;4981725;28;20038;-76
2023/09/30 12:06:34;;;;;;;5.70;1.30;;;23.70;99.90;;;;;;4980167;28;20078;-76
2023/09/30 12:08:59;;;;;;;7.82;1.65;;;23.70;99.90;;;;;;4979869;28;20042;-76
2023/09/30 12:11:25;;;;;;;7.72;1.83;;;23.80;99.90;;;;;;4978755;28;20039;-76
2023/09/30 12:13:51;;;;;;;7.22;1.30;;;23.90;99.90;;;;;;4980194;28;20042;-75
2023/09/30 12:16:17;;;;;;;5.68;1.90;;;23.80;99.90;;;;;;4983032;28;20065;-76
2023/09/30 12:18:43;;;;;;;4.15;1.38;;;23.80;99.90;;;;;;4983771;28;20046;-76
2023/09/30 12:21:19;;;;;;;5.82;2.15;;;23.70;99.90;;;;;;4982710;28;20049;-76
2023/09/30 12:23:46;;;;;;;7.78;1.92;;;23.80;99.90;;;;;;4982208;28;20242;-77
2023/09/30 12:26:12;;;;;;;7.95;2.10;;;23.80;99.90;;;;;;4978798;28;20308;-76
2023/09/30 12:28:40;;;;;;;5.85;1.73;;;24.00;99.90;;;;;;4977206;28;20045;-76
2023/09/30 12:31:06;;;;;;;6.05;2.13;;;23.70;99.90;;;;;;4977170;28;20103;-76
2023/09/30 12:33:32;;;;;;;5.57;1.73;;;24.40;99.90;;;;;;4977016;28;20502;-77
2023/09/30 12:35:58;;;;;;;8.43;1.95;;;23.60;99.90;;;;;;4977113;28;20041;-77
2023/09/30 12:38:25;;;;;;;4.80;1.58;;;23.50;99.90;;;;;;4977675;28;20042;-77
2023/09/30 12:40:52;;;;;;;6.10;1.80;;;23.40;99.90;;;;;;4977094;28;20049;-76
2023/09/30 12:43:17;;;;;;;6.25;2.05;;;23.60;99.90;;;;;;4977307;28;20050;-77
2023/09/30 12:45:43;;;;;;;4.45;1.80;;;23.50;99.90;;;;;;4977383;28;20053;-76
2023/09/30 12:48:08;;;;;;;7.05;1.63;;;23.90;99.90;;;;;;4977286;28;20038;-76
2023/09/30 12:50:34;;;;;;;6.97;1.50;;;23.70;99.90;;;;;;4977047;28;20070;-76
2023/09/30 12:53:00;;;;;;;11.50;1.80;;;23.70;99.90;;;;;;4977312;28;20041;-77
2023/09/30 12:55:26;;;;;;;8.50;1.50;;;23.70;99.90;;;;;;4977011;28;20042;-77
2023/09/30 12:57:53;;;;;;;7.43;1.50;;;23.70;99.90;;;;;;4977147;28;20504;-76
2023/09/30 13:00:19;;;;;;;5.78;1.67;;;23.80;99.90;;;;;;4978891;28;20050;-77
2023/09/30 13:02:46;;;;;;;7.13;1.85;;;23.90;99.90;;;;;;4979877;28;20034;-76
2023/09/30 13:05:11;;;;;;;5.53;2.17;;;23.80;99.90;;;;;;4979841;28;20046;-76